This is the latest recevied weather packets stored in our database for station/object KE8WMS. If no packets are shown the sender has not sent any weather packets the latest 1 day(s).
| Time | Temp. | Humidity | Pressure | Rain* | Wind** | Luminosity | Snow |
|---|---|---|---|---|---|---|---|
| 1777993711 | 20° C | 63% | 1001.9 hPa | 0 mm | 1.79 m/s, 186° | 487 W/m² | - |
| 1777993408 | 20° C | 64% | 1002 hPa | 0 mm | 1.34 m/s, 181° | 451 W/m² | - |
| 1777993102 | 20.56° C | 62% | 1002 hPa | 0 mm | 2.68 m/s, 207° | 558 W/m² | - |
| 1777992801 | 20° C | 64% | 1002 hPa | 0 mm | 0.89 m/s, 223° | 544 W/m² | - |
| 1777992498 | 20.56° C | 62% | 1001.9 hPa | 0 mm | 3.13 m/s, 203° | 568 W/m² | - |
| 1777992197 | 19.44° C | 64% | 1002.1 hPa | 0 mm | 1.79 m/s, 246° | 533 W/m² | - |
| 1777991893 | 19.44° C | 64% | 1002.1 hPa | 0 mm | 1.79 m/s, 244° | 453 W/m² | - |
| 1777991591 | 19.44° C | 66% | 1002.1 hPa | 0 mm | 0.89 m/s, 111° | 467 W/m² | - |
| 1777991288 | 18.33° C | 67% | 1001.9 hPa | 0 mm | 2.24 m/s, 285° | 438 W/m² | - |
| 1777990986 | 18.33° C | 67% | 1002.2 hPa | 0 mm | 2.24 m/s, 227° | 180 W/m² | - |
| 1777990683 | 18.89° C | 66% | 1002.3 hPa | 0 mm | 1.34 m/s, 204° | 217 W/m² | - |
| 1777990380 | 18.89° C | 67% | 1001.9 hPa | 0 mm | 0.89 m/s, 289° | 448 W/m² | - |
| 1777990075 | 18.89° C | 68% | 1001.9 hPa | 0 mm | 1.34 m/s, 238° | 430 W/m² | - |
| 1777989772 | 18.89° C | 68% | 1002 hPa | 0 mm | 1.34 m/s, 268° | 307 W/m² | - |
| 1777989470 | 18.89° C | 67% | 1001.6 hPa | 0 mm | 3.13 m/s, 87° | 381 W/m² | - |
| 1777989166 | 18.89° C | 70% | 1001.4 hPa | 0 mm | 1.34 m/s, 220° | 414 W/m² | - |
| 1777988862 | 18.89° C | 70% | 1001.4 hPa | 0 mm | 2.24 m/s, 219° | 204 W/m² | - |
| 1777988559 | 18.89° C | 72% | 1001.6 hPa | 0 mm | 1.34 m/s, 149° | 149 W/m² | - |
| 1777988256 | 18.33° C | 71% | 1001.7 hPa | 0 mm | 2.24 m/s, 229° | 115 W/m² | - |
| 1777987952 | 18.33° C | 73% | 1001.6 hPa | 0 mm | 2.24 m/s, 156° | 98 W/m² | - |
| 1777987648 | 17.78° C | 73% | 1001.6 hPa | 0 mm | 2.24 m/s, 212° | 91 W/m² | - |
| 1777987346 | 17.78° C | 74% | 1001.3 hPa | 0 mm | 1.34 m/s, 221° | 103 W/m² | - |
| 1777987043 | 17.22° C | 74% | 1001.6 hPa | 0 mm | 1.34 m/s, 176° | 72 W/m² | - |
| 1777986740 | 17.22° C | 74% | 1001.4 hPa | 0 mm | 1.34 m/s, 201° | 112 W/m² | - |
| 1777986438 | 17.22° C | 75% | 1001.5 hPa | 0 mm | 0.89 m/s, 215° | 116 W/m² | - |
* Rain latest hour (hover to see other rain measurements)
** Current wind speed in m/s (hover to see current wind gust speed)